Time;durP1;ratioP1;P1;durP2;ratioP2;P2;SDS_P1;SDS_P2;PMS_P1;PMS_P2;Temp;Humidity;BMP_temperature;BMP_pressure;BME280_temperature;BME280_humidity;BME280_pressure;Samples;Min_cycle;Max_cycle;Signal;HPM_P1;HPM_P2
2022/04/01 00:00:44;;;;;;;74.32;38.23;;;;;;;8.61;87.56;92469.31;1551211;91;21038;-50
2022/04/01 00:03:11;;;;;;;68.45;39.30;;;;;;;8.60;86.91;92471.92;1547508;90;21634;-50
2022/04/01 00:05:39;;;;;;;71.72;38.25;;;;;;;8.58;87.01;92471.67;1551019;90;21147;-50
2022/04/01 00:08:08;;;;;;;69.55;38.02;;;;;;;8.64;87.12;92466.96;1527797;91;21121;-52
2022/04/01 00:10:35;;;;;;;68.70;37.35;;;;;;;8.68;86.57;92460.66;1543952;90;21129;-50
2022/04/01 00:13:02;;;;;;;50.60;29.95;;;;;;;8.66;86.22;92459.63;1549721;91;21065;-50
2022/04/01 00:15:31;;;;;;;60.25;35.15;;;;;;;8.59;86.09;92454.63;1557225;90;21017;-50
2022/04/01 00:18:00;;;;;;;54.45;31.17;;;;;;;8.50;86.16;92450.69;1555514;91;21197;-50
2022/04/01 00:20:27;;;;;;;53.78;32.13;;;;;;;8.44;86.17;92442.43;1557094;90;21092;-50
2022/04/01 00:22:55;;;;;;;46.75;28.98;;;;;;;8.38;86.21;92449.88;1549981;91;21596;-49
2022/04/01 00:25:23;;;;;;;52.88;29.75;;;;;;;8.38;86.33;92452.61;1549901;91;21097;-49
2022/04/01 00:27:51;;;;;;;66.00;34.18;;;;;;;8.34;86.20;92441.74;1551102;92;21105;-51
2022/04/01 00:30:19;;;;;;;61.13;33.35;;;;;;;8.26;86.24;92438.70;1551447;90;21187;-49
2022/04/01 00:32:47;;;;;;;65.67;32.33;;;;;;;8.18;86.46;92439.64;1548612;91;21050;-49
2022/04/01 00:35:15;;;;;;;66.05;33.18;;;;;;;8.14;86.96;92435.75;1551179;92;21034;-49
2022/04/01 00:37:42;;;;;;;52.55;30.35;;;;;;;8.21;87.44;92432.58;1550667;91;21549;-49
2022/04/01 00:40:12;;;;;;;57.27;31.07;;;;;;;8.29;87.39;92430.88;1552756;90;21565;-50
2022/04/01 00:42:41;;;;;;;57.40;34.80;;;;;;;8.40;87.53;92428.22;1524544;91;21139;-50
2022/04/01 00:45:10;;;;;;;69.07;36.73;;;;;;;8.43;87.01;92419.65;1541683;92;21471;-49
2022/04/01 00:47:41;;;;;;;52.25;29.95;;;;;;;8.46;87.05;92413.92;1548576;92;21157;-50
2022/04/01 00:50:09;;;;;;;46.95;26.27;;;;;;;8.50;86.65;92421.31;1549688;91;21010;-49
2022/04/01 00:52:38;;;;;;;48.23;28.90;;;;;;;8.44;85.96;92417.78;1551438;91;21127;-49
2022/04/01 00:55:05;;;;;;;54.77;29.98;;;;;;;8.37;85.77;92425.70;1550399;92;21228;-49
2022/04/01 00:57:33;;;;;;;55.58;30.92;;;;;;;8.31;86.33;92428.42;1551135;90;21485;-50
2022/04/01 01:00:00;;;;;;;67.80;33.55;;;;;;;8.30;86.23;92426.16;1550819;92;21077;-48
2022/04/01 01:02:28;;;;;;;85.30;40.98;;;;;;;8.26;86.28;92423.64;1549944;92;21026;-49
2022/04/01 01:04:57;;;;;;;91.45;39.80;;;;;;;8.24;86.51;92425.38;1546548;92;21014;-49
2022/04/01 01:07:26;;;;;;;80.07;38.80;;;;;;;8.26;86.40;92427.75;1549910;91;21042;-49
2022/04/01 01:09:54;;;;;;;78.50;38.30;;;;;;;8.25;86.24;92428.98;1553041;92;21470;-50
2022/04/01 01:12:21;;;;;;;54.80;33.25;;;;;;;8.24;86.22;92425.38;1551407;90;21105;-51
2022/04/01 01:14:49;;;;;;;52.08;29.75;;;;;;;8.17;86.19;92429.29;1526834;92;21066;-49
2022/04/01 01:17:16;;;;;;;54.08;31.75;;;;;;;8.08;86.34;92431.46;1547283;90;21014;-50
2022/04/01 01:19:49;;;;;;;54.55;31.15;;;;;;;7.98;86.62;92436.37;1547156;91;21017;-49
2022/04/01 01:22:14;;;;;;;64.70;34.48;;;;;;;7.94;87.00;92428.23;1552394;91;21077;-49
2022/04/01 01:24:43;;;;;;;59.93;32.20;;;;;;;7.95;87.44;92427.77;1552530;90;21648;-49
2022/04/01 01:27:11;;;;;;;72.47;39.08;;;;;;;8.02;87.76;92417.73;1552943;92;21165;-49
2022/04/01 01:29:40;;;;;;;98.37;51.05;;;;;;;8.04;87.38;92415.88;1551168;91;21039;-50
2022/04/01 01:32:11;;;;;;;120.02;61.55;;;;;;;7.99;87.08;92415.97;1543712;92;21209;-49
2022/04/01 01:34:40;;;;;;;118.00;56.85;;;;;;;7.94;86.94;92413.18;1552759;91;21473;-49
2022/04/01 01:37:10;;;;;;;105.30;54.95;;;;;;;7.91;87.13;92402.58;1550024;90;21018;-50
2022/04/01 01:39:36;;;;;;;106.30;57.88;;;;;;;7.95;87.21;92408.60;1540101;92;21002;-49
2022/04/01 01:42:06;;;;;;;109.97;58.13;;;;;;;7.99;87.45;92408.36;1550294;92;21062;-49
2022/04/01 01:44:35;;;;;;;101.40;54.77;;;;;;;8.03;87.21;92415.12;1519385;92;21084;-51
2022/04/01 01:47:03;;;;;;;101.40;54.35;;;;;;;8.02;86.78;92413.62;1548361;91;21083;-50
2022/04/01 01:49:31;;;;;;;96.80;53.73;;;;;;;8.01;86.76;92415.46;1552445;91;21054;-49
2022/04/01 01:54:45;;;;;;;65.08;39.05;;;;;;;7.96;86.45;92406.00;1544781;91;21110;-51
2022/04/01 01:57:17;;;;;;;59.55;36.83;;;;;;;7.94;86.72;92404.37;1547484;92;21183;-50
2022/04/01 01:59:45;;;;;;;78.25;44.83;;;;;;;7.94;86.94;92407.10;1542131;92;21070;-49
2022/04/01 02:02:14;;;;;;;70.40;41.83;;;;;;;7.85;86.52;92405.90;1548211;91;21170;-50
2022/04/01 02:04:41;;;;;;;64.75;37.90;;;;;;;7.77;86.67;92396.64;1547208;91;21097;-49
2022/04/01 02:07:11;;;;;;;60.28;36.73;;;;;;;7.75;86.74;92399.12;1547909;91;21031;-48
2022/04/01 02:09:40;;;;;;;59.20;35.08;;;;;;;7.72;86.56;92395.23;1545721;91;21175;-49
2022/04/01 02:12:08;;;;;;;62.67;36.58;;;;;;;7.64;86.51;92399.02;1545520;91;21547;-49
2022/04/01 02:14:36;;;;;;;63.45;36.05;;;;;;;7.56;86.64;92389.73;1544946;91;21137;-50
2022/04/01 02:17:05;;;;;;;64.03;34.53;;;;;;;7.49;86.89;92391.55;1543955;92;21539;-50
2022/04/01 02:19:32;;;;;;;65.90;33.55;;;;;;;7.48;87.66;92385.94;1545637;91;21070;-48
2022/04/01 02:22:05;;;;;;;66.40;37.23;;;;;;;7.53;87.87;92386.59;1544596;91;21254;-50
2022/04/01 02:24:33;;;;;;;64.03;38.30;;;;;;;7.59;88.04;92394.25;1542313;91;21501;-49
2022/04/01 02:27:01;;;;;;;69.12;41.77;;;;;;;7.66;87.91;92388.97;1543812;91;21145;-50
2022/04/01 02:29:29;;;;;;;77.72;42.30;;;;;;;7.64;87.70;92385.34;1541426;90;21058;-50
2022/04/01 02:32:16;;;;;;;72.92;42.23;;;;;;;7.63;87.48;92386.58;1541392;91;21150;-49
2022/04/01 02:34:48;;;;;;;;;;;;;;;7.55;87.37;92380.02;1538743;91;21899;-49
2022/04/01 02:37:16;;;;;;;67.15;40.40;;;;;;;7.54;87.59;92381.27;1548498;92;20203;-51
2022/04/01 02:39:43;;;;;;;65.30;39.75;;;;;;;7.55;87.54;92378.66;1548179;91;21173;-49
2022/04/01 02:42:12;;;;;;;66.92;41.05;;;;;;;7.54;87.49;92377.79;1546437;91;21550;-49
2022/04/01 02:44:40;;;;;;;67.95;39.45;;;;;;;7.54;87.93;92381.89;1542075;92;21471;-49
2022/04/01 02:47:08;;;;;;;75.35;38.60;;;;;;;7.58;88.00;92387.28;1546388;91;21960;-51
2022/04/01 02:49:36;;;;;;;67.40;37.93;;;;;;;7.54;87.61;92381.27;1543100;92;21047;-50
2022/04/01 02:52:05;;;;;;;78.92;46.35;;;;;;;7.50;87.54;92384.84;1548062;92;21058;-50
2022/04/01 02:54:35;;;;;;;51.23;31.30;;;;;;;7.48;87.70;92387.31;1541061;91;21091;-49
2022/04/01 02:57:03;;;;;;;64.77;41.73;;;;;;;7.50;87.93;92389.58;1547794;91;21010;-49
2022/04/01 02:59:30;;;;;;;70.35;40.58;;;;;;;7.50;88.06;92378.00;1545604;92;21792;-50
2022/04/01 03:01:58;;;;;;;66.60;38.92;;;;;;;7.49;87.90;92374.40;1548340;91;21470;-49
2022/04/01 03:04:27;;;;;;;64.25;39.42;;;;;;;7.45;87.83;92370.50;1543723;92;21023;-48
2022/04/01 03:06:58;;;;;;;60.67;35.75;;;;;;;7.50;88.36;92371.16;1542190;92;21022;-49
2022/04/01 03:09:25;;;;;;;63.33;38.50;;;;;;;7.59;88.24;92362.80;1543635;92;21102;-51
2022/04/01 03:11:58;;;;;;;46.40;30.68;;;;;;;7.64;87.75;92359.34;1543651;92;21286;-53
2022/04/01 03:14:45;;;;;;;46.28;29.02;;;;;;;7.61;87.48;92365.80;1546420;91;21126;-50
2022/04/01 03:17:32;;;;;;;46.92;26.42;;;;;;;7.55;87.12;92364.98;1545066;91;21172;-50
2022/04/01 03:20:01;;;;;;;47.15;28.90;;;;;;;7.44;86.97;92373.11;1544817;91;21088;-50
2022/04/01 03:22:30;;;;;;;53.73;32.58;;;;;;;7.35;87.15;92378.73;1528788;92;21106;-51
2022/04/01 03:24:57;;;;;;;51.53;29.98;;;;;;;7.32;87.26;92386.54;1541428;92;21198;-50
2022/04/01 03:27:24;;;;;;;56.80;33.73;;;;;;;7.33;87.56;92383.94;1542083;91;21579;-51
2022/04/01 03:29:52;;;;;;;68.17;41.18;;;;;;;7.33;87.73;92390.77;1556131;90;21100;-50
2022/04/01 03:32:19;;;;;;;69.25;41.50;;;;;;;7.33;87.89;92382.56;1553333;91;21286;-51
2022/04/01 03:34:47;;;;;;;74.20;43.78;;;;;;;7.32;88.07;92387.91;1545658;91;21067;-51
2022/04/01 03:37:14;;;;;;;81.45;42.13;;;;;;;7.38;88.31;92394.16;1553216;91;21282;-51
2022/04/01 03:39:42;;;;;;;78.45;43.58;;;;;;;7.40;88.20;92387.63;1547800;91;21606;-50
2022/04/01 03:42:11;;;;;;;80.40;47.78;;;;;;;7.38;88.16;92383.23;1546517;90;22158;-50
2022/04/01 03:44:41;;;;;;;92.78;48.65;;;;;;;7.37;88.24;92386.46;1555868;90;21079;-51
2022/04/01 03:47:20;;;;;;;100.18;53.50;;;;;;;7.38;88.69;92372.29;1547630;91;21154;-51
2022/04/01 03:49:51;;;;;;;80.53;41.53;;;;;;;7.42;88.56;92383.02;1540036;92;22243;-50
2022/04/01 03:52:21;;;;;;;79.42;42.25;;;;;;;7.43;88.54;92374.34;1545018;92;21070;-50
2022/04/01 03:54:49;;;;;;;71.42;41.48;;;;;;;7.47;88.45;92372.73;1540101;92;21517;-51
2022/04/01 03:57:35;;;;;;;73.97;43.70;;;;;;;7.46;88.47;92377.47;1543616;91;21002;-51
2022/04/01 04:00:14;;;;;;;67.67;39.25;;;;;;;7.50;88.59;92379.36;1537244;92;21058;-50
2022/04/01 04:02:44;;;;;;;64.82;36.45;;;;;;;7.52;88.38;92374.79;1553483;91;21852;-49
2022/04/01 04:05:16;;;;;;;56.55;33.70;;;;;;;7.46;88.13;92369.27;1535432;90;21066;-51
2022/04/01 04:07:44;;;;;;;61.37;36.17;;;;;;;7.44;88.24;92364.14;1530963;91;21669;-50
2022/04/01 04:10:13;;;;;;;65.25;35.10;;;;;;;7.46;88.26;92372.00;1540531;91;21087;-51
2022/04/01 04:12:46;;;;;;;73.15;41.80;;;;;;;7.51;88.62;92378.13;1549561;90;21042;-50
2022/04/01 04:15:14;;;;;;;74.10;40.50;;;;;;;7.57;88.86;92374.08;1528246;92;21267;-50
2022/04/01 04:17:44;;;;;;;82.90;44.45;;;;;;;7.65;89.18;92379.99;1549202;89;20966;-51
2022/04/01 04:20:32;;;;;;;109.45;58.45;;;;;;;7.70;88.81;92380.65;1541829;91;21224;-49
2022/04/01 04:23:16;;;;;;;99.87;53.60;;;;;;;7.75;88.48;92379.96;1541281;91;21129;-50
2022/04/01 04:26:01;;;;;;;82.50;44.38;;;;;;;7.78;88.31;92385.83;1538896;92;21215;-51
2022/04/01 04:28:35;;;;;;;80.03;44.77;;;;;;;7.80;88.35;92390.20;1532541;91;21165;-49
2022/04/01 04:31:07;;;;;;;84.17;47.80;;;;;;;7.86;88.56;92388.23;1540871;92;21086;-50
2022/04/01 04:33:46;;;;;;;77.12;44.00;;;;;;;7.88;88.28;92391.23;1543263;92;21522;-50
2022/04/01 04:36:19;;;;;;;93.95;52.03;;;;;;;7.93;88.55;92387.81;1543391;92;21550;-50
2022/04/01 04:38:48;;;;;;;112.50;58.23;;;;;;;8.00;88.48;92387.35;1551251;91;21656;-50
2022/04/01 04:41:15;;;;;;;96.55;51.30;;;;;;;8.08;88.05;92391.12;1543410;90;21537;-50
2022/04/01 04:43:45;;;;;;;107.87;60.05;;;;;;;8.15;87.63;92387.95;1538451;91;20991;-52
2022/04/01 04:46:14;;;;;;;122.17;69.85;;;;;;;8.22;87.48;92388.16;1553164;90;21676;-50
2022/04/01 04:48:42;;;;;;;122.90;66.12;;;;;;;8.27;87.28;92391.54;1559782;90;21084;-51
2022/04/01 04:51:11;;;;;;;113.35;63.00;;;;;;;8.33;86.92;92398.55;1557554;90;21017;-50
2022/04/01 04:53:40;;;;;;;116.28;64.05;;;;;;;8.39;86.58;92395.22;1564963;90;21467;-53
2022/04/01 04:56:08;;;;;;;95.45;55.58;;;;;;;8.40;85.99;92396.72;1536902;91;21438;-51
2022/04/01 04:58:39;;;;;;;105.37;58.13;;;;;;;8.42;85.97;92401.08;1560191;90;21167;-51
2022/04/01 05:01:38;;;;;;;101.15;55.85;;;;;;;8.43;85.98;92405.32;1568113;90;21024;-52
2022/04/01 05:04:26;;;;;;;79.60;48.50;;;;;;;8.43;85.68;92392.99;1562343;90;21501;-56
2022/04/01 05:07:36;;;;;;;89.45;49.53;;;;;;;8.39;85.43;92393.84;1550176;90;21189;-56
2022/04/01 05:10:19;;;;;;;101.30;55.03;;;;;;;8.27;85.12;92388.17;1531965;91;21009;-50
2022/04/01 05:13:21;;;;;;;97.33;54.90;;;;;;;8.21;85.79;92386.66;1542802;91;21513;-49
2022/04/01 05:16:08;;;;;;;88.00;49.20;;;;;;;8.24;86.04;92387.78;1538693;92;21490;-52
2022/04/01 05:18:53;;;;;;;90.30;46.98;;;;;;;8.22;85.94;92382.05;1553184;91;21114;-52
2022/04/01 05:21:23;;;;;;;92.75;47.70;;;;;;;8.20;86.11;92383.16;1545003;90;21161;-51
2022/04/01 05:23:59;;;;;;;100.02;54.45;;;;;;;8.22;86.01;92384.05;1553086;90;21016;-50
2022/04/01 05:26:42;;;;;;;99.85;55.65;;;;;;;8.24;86.13;92393.25;1555225;90;21014;-49
2022/04/01 05:29:18;;;;;;;87.88;49.15;;;;;;;8.23;86.23;92383.55;1552167;92;21075;-57
2022/04/01 05:32:04;;;;;;;87.33;50.48;;;;;;;8.23;86.48;92389.02;1554683;91;21061;-50
2022/04/01 05:34:43;;;;;;;100.65;57.23;;;;;;;8.27;87.04;92384.06;1543797;91;21201;-50
2022/04/01 05:37:10;;;;;;;101.27;54.83;;;;;;;8.34;86.96;92398.68;1563946;89;21138;-49
2022/04/01 05:39:41;;;;;;;91.95;54.55;;;;;;;8.37;87.00;92397.70;1546244;90;21621;-49
2022/04/01 05:42:11;;;;;;;60.98;40.00;;;;;;;8.48;87.46;92401.13;1564819;89;21122;-51
2022/04/01 05:44:44;;;;;;;42.17;26.95;;;;;;;8.56;87.22;92401.54;1562731;90;20989;-50
2022/04/01 05:47:11;;;;;;;40.43;25.92;;;;;;;8.63;86.70;92405.81;1556727;90;21191;-51
2022/04/01 05:49:42;;;;;;;38.58;25.35;;;;;;;8.63;86.18;92405.17;1561144;90;21115;-49
2022/04/01 05:52:10;;;;;;;39.63;29.15;;;;;;;8.68;86.10;92415.44;1531741;91;21116;-50
2022/04/01 05:54:42;;;;;;;46.90;26.77;;;;;;;8.81;86.00;92415.72;1557890;90;21552;-49
2022/04/01 05:57:10;;;;;;;45.33;28.83;;;;;;;8.88;85.69;92409.03;1540028;90;21122;-51
2022/04/01 05:59:40;;;;;;;47.80;30.77;;;;;;;8.93;85.27;92411.80;1534420;91;21103;-56
2022/04/01 06:02:40;;;;;;;73.85;45.25;;;;;;;9.03;85.37;92417.20;1519289;92;22333;-50
2022/04/01 06:05:29;;;;;;;78.42;47.20;;;;;;;9.19;85.71;92415.88;1537460;91;21138;-51
2022/04/01 06:08:36;;;;;;;62.58;40.70;;;;;;;9.50;85.48;92423.95;1542175;91;21099;-51
2022/04/01 06:11:37;;;;;;;59.65;38.45;;;;;;;9.73;84.61;92412.36;1538471;89;21206;-52
2022/04/01 06:14:24;;;;;;;66.55;42.53;;;;;;;9.94;83.87;92415.75;1526405;90;21772;-53
2022/04/01 06:17:36;;;;;;;69.03;46.37;;;;;;;10.09;83.01;92418.28;1471067;94;21161;-51
2022/04/01 06:20:07;;;;;;;52.65;33.95;;;;;;;10.21;82.56;92412.91;1457988;95;21758;-51
2022/04/01 06:22:37;;;;;;;56.98;36.65;;;;;;;10.29;81.47;92422.89;1524945;90;21099;-52
2022/04/01 06:25:12;;;;;;;47.27;32.95;;;;;;;10.34;80.72;92413.16;1542228;90;22457;-54
2022/04/01 06:27:48;;;;;;;47.75;32.53;;;;;;;10.31;80.22;92418.28;1528904;91;21159;-53
2022/04/01 06:30:18;;;;;;;43.17;32.28;;;;;;;10.27;80.51;92412.27;1516217;92;21080;-52
2022/04/01 06:33:14;;;;;;;41.65;27.02;;;;;;;10.40;80.72;92408.39;1535961;90;26672;-53
2022/04/01 06:36:05;;;;;;;33.85;24.65;;;;;;;10.49;79.46;92392.38;1542437;91;21148;-52
2022/04/01 06:38:51;;;;;;;29.98;21.27;;;;;;;10.42;79.11;92399.02;1533276;91;21079;-51
2022/04/01 06:41:25;;;;;;;26.35;20.40;;;;;;;10.41;79.04;92409.89;1539155;90;21171;-52
2022/04/01 06:44:02;;;;;;;32.25;24.12;;;;;;;10.38;79.07;92412.27;1526741;90;21157;-53
2022/04/01 06:46:33;;;;;;;36.90;24.72;;;;;;;10.38;79.27;92415.75;1540284;91;21149;-51
2022/04/01 06:49:07;;;;;;;38.20;25.65;;;;;;;10.42;79.44;92411.39;1561769;90;21079;-52
2022/04/01 06:55:57;;;;;;;28.50;21.95;;;;;;;10.64;78.84;92408.59;1596760;86;21113;-66
2022/04/01 06:58:30;;;;;;;27.27;21.12;;;;;;;10.77;78.31;92405.45;1633099;85;21044;-62
2022/04/01 07:01:03;;;;;;;32.58;23.25;;;;;;;10.84;78.24;92410.42;1617687;86;21509;-66
2022/04/01 07:03:31;;;;;;;30.82;22.65;;;;;;;10.90;78.03;92406.40;1638054;85;21319;-67
2022/04/01 07:05:58;;;;;;;26.05;19.15;;;;;;;11.00;78.28;92395.22;1632427;85;20968;-69
2022/04/01 07:08:26;;;;;;;26.97;19.55;;;;;;;11.25;78.10;92397.49;1623149;85;21674;-65
2022/04/01 07:10:55;;;;;;;24.70;18.35;;;;;;;11.50;77.23;92395.00;1630667;86;21400;-67
2022/04/01 07:13:23;;;;;;;26.75;19.77;;;;;;;11.66;76.37;92393.55;1627769;86;21041;-66
2022/04/01 07:15:50;;;;;;;34.00;21.10;;;;;;;11.79;76.06;92395.71;1641478;85;21039;-60
2022/04/01 07:18:19;;;;;;;25.77;18.77;;;;;;;11.91;75.52;92393.73;1607225;84;21413;-63
2022/04/01 07:20:46;;;;;;;32.23;22.05;;;;;;;12.04;75.36;92391.78;1600598;85;21209;-65
2022/04/01 07:23:15;;;;;;;35.65;23.67;;;;;;;12.13;74.92;92397.72;1627252;85;21072;-62
2022/04/01 07:25:42;;;;;;;32.55;21.85;;;;;;;12.16;74.70;92398.07;1629136;86;21689;-60
2022/04/01 07:28:10;;;;;;;29.85;19.12;;;;;;;12.21;74.26;92397.27;1611103;87;21045;-62
2022/04/01 07:30:38;;;;;;;24.12;17.32;;;;;;;12.25;74.02;92404.63;1593887;86;21073;-63
2022/04/01 07:33:05;;;;;;;29.35;20.57;;;;;;;12.28;74.10;92406.99;1607103;87;21223;-61
2022/04/01 07:35:34;;;;;;;34.55;22.00;;;;;;;12.33;74.00;92411.09;1620436;86;21595;-61
2022/04/01 07:38:03;;;;;;;33.65;20.82;;;;;;;12.36;74.10;92401.78;1628966;85;21406;-62
2022/04/01 07:40:32;;;;;;;32.85;22.70;;;;;;;12.44;74.29;92404.08;1635125;86;21347;-63
2022/04/01 07:43:00;;;;;;;30.20;18.75;;;;;;;12.57;74.40;92401.46;1623020;85;21057;-60
2022/04/01 07:45:29;;;;;;;31.45;20.23;;;;;;;12.67;74.12;92409.50;1619627;86;21280;-62
2022/04/01 07:47:56;;;;;;;34.70;21.45;;;;;;;12.73;74.04;92403.31;1621627;86;21210;-62
2022/04/01 07:50:23;;;;;;;32.53;20.35;;;;;;;12.83;73.90;92401.69;1624738;86;21059;-65
2022/04/01 07:52:50;;;;;;;26.40;18.35;;;;;;;12.92;74.28;92399.35;1625118;86;21614;-61
2022/04/01 07:55:18;;;;;;;28.35;19.23;;;;;;;12.97;74.32;92392.28;1660124;84;21140;-61
2022/04/01 07:57:46;;;;;;;26.12;17.70;;;;;;;12.99;74.37;92396.65;1646556;85;21118;-63
2022/04/01 08:00:15;;;;;;;25.20;16.45;;;;;;;13.05;74.48;92400.84;1607446;85;21048;-61
2022/04/01 08:02:43;;;;;;;26.95;18.87;;;;;;;13.18;74.43;92390.53;1650175;85;21510;-67
2022/04/01 08:05:11;;;;;;;24.07;18.82;;;;;;;13.23;74.48;92387.70;1658814;83;21123;-63
2022/04/01 08:07:40;;;;;;;28.27;20.72;;;;;;;13.34;74.50;92396.48;1639740;85;21557;-61
2022/04/01 08:10:08;;;;;;;26.85;18.92;;;;;;;13.41;74.43;92389.01;1660812;83;21114;-62
2022/04/01 08:12:35;;;;;;;26.30;18.40;;;;;;;13.48;74.55;92398.80;1650497;85;21065;-60
2022/04/01 08:15:06;;;;;;;16.65;11.48;;;;;;;13.58;74.79;92395.80;1654210;85;21670;-61
2022/04/01 08:17:34;;;;;;;9.05;6.60;;;;;;;13.75;74.90;92381.73;1579830;88;21053;-61
2022/04/01 08:20:03;;;;;;;8.85;6.37;;;;;;;13.94;74.56;92381.08;1595770;86;21035;-63
2022/04/01 08:22:31;;;;;;;7.78;5.42;;;;;;;14.16;73.56;92382.17;1604157;87;21528;-65
2022/04/01 08:24:59;;;;;;;9.68;6.08;;;;;;;14.37;73.32;92374.14;1648997;84;21114;-69
2022/04/01 08:27:26;;;;;;;9.53;5.35;;;;;;;14.59;72.74;92375.90;1652585;84;21086;-61
2022/04/01 08:29:59;;;;;;;5.53;3.92;;;;;;;14.83;71.99;92386.78;1669927;84;21116;-61
2022/04/01 08:32:23;;;;;;;5.03;3.87;;;;;;;14.98;70.32;92382.85;1645348;84;21398;-65
2022/04/01 08:34:51;;;;;;;7.28;5.28;;;;;;;15.10;69.83;92381.38;1650912;84;21488;-63
2022/04/01 08:37:19;;;;;;;6.28;4.58;;;;;;;15.20;69.53;92388.62;1648411;84;21869;-67
2022/04/01 08:39:48;;;;;;;5.20;4.12;;;;;;;15.26;69.35;92390.00;1662508;84;21148;-68
2022/04/01 08:42:15;;;;;;;5.97;4.30;;;;;;;15.33;68.96;92390.77;1665299;84;21971;-68
2022/04/01 08:44:46;;;;;;;7.33;4.72;;;;;;;15.34;68.80;92397.80;1620938;86;21109;-64
2022/04/01 08:47:14;;;;;;;7.55;4.60;;;;;;;15.37;68.87;92393.22;1624018;86;21145;-64
2022/04/01 08:49:41;;;;;;;9.60;5.33;;;;;;;15.39;68.82;92399.70;1627864;86;22328;-63
2022/04/01 08:52:09;;;;;;;16.87;5.17;;;;;;;15.46;68.99;92393.53;1651460;83;21103;-62
2022/04/01 08:54:37;;;;;;;16.15;6.42;;;;;;;15.51;68.77;92392.66;1652699;85;21258;-66
2022/04/01 08:57:05;;;;;;;17.77;9.80;;;;;;;15.56;68.51;92387.64;1653823;83;21576;-64
2022/04/01 08:59:36;;;;;;;10.00;6.20;;;;;;;15.61;68.44;92388.19;1656898;84;21144;-63
2022/04/01 09:02:07;;;;;;;7.47;4.70;;;;;;;15.70;67.53;92386.34;1647066;85;20999;-61
2022/04/01 09:04:34;;;;;;;10.00;6.00;;;;;;;15.77;67.02;92387.06;1642264;84;21073;-64
2022/04/01 09:07:14;;;;;;;11.05;6.25;;;;;;;15.74;66.88;92393.68;1622939;86;21004;-65
2022/04/01 09:09:43;;;;;;;8.95;5.62;;;;;;;15.68;67.17;92398.61;1635373;84;21110;-62
2022/04/01 09:12:15;;;;;;;5.00;3.55;;;;;;;15.59;66.98;92394.91;1645764;84;21258;-63
2022/04/01 09:14:51;;;;;;;5.10;3.77;;;;;;;15.52;67.41;92394.81;1643595;84;21046;-64
2022/04/01 09:17:19;;;;;;;6.25;3.10;;;;;;;15.48;68.17;92397.89;1632175;84;21497;-63
2022/04/01 09:19:46;;;;;;;3.92;3.17;;;;;;;15.47;69.69;92405.34;1648950;84;21026;-68
2022/04/01 09:22:24;;;;;;;8.08;5.25;;;;;;;15.44;69.85;92397.48;1634880;85;21189;-63
2022/04/01 09:25:02;;;;;;;13.38;7.58;;;;;;;15.42;70.97;92403.44;1646775;85;21074;-63
2022/04/01 09:27:46;;;;;;;7.10;5.22;;;;;;;15.50;71.23;92408.42;1644427;86;21128;-65
2022/04/01 09:30:19;;;;;;;6.53;4.28;;;;;;;15.64;70.73;92404.36;1645922;86;21441;-68
2022/04/01 09:32:55;;;;;;;5.87;4.08;;;;;;;15.74;69.48;92400.61;1626400;86;21463;-61
2022/04/01 09:35:24;;;;;;;5.83;4.08;;;;;;;15.76;69.29;92406.36;1644000;85;21150;-63
2022/04/01 09:38:01;;;;;;;7.53;4.35;;;;;;;15.85;69.29;92406.55;1644839;84;21598;-62
2022/04/01 09:40:30;;;;;;;6.17;4.17;;;;;;;16.00;69.13;92401.19;1650580;84;21055;-70
2022/04/01 09:42:59;;;;;;;5.95;4.28;;;;;;;16.18;68.80;92395.48;1634616;85;21046;-67
2022/04/01 09:45:29;;;;;;;4.03;2.60;;;;;;;16.38;68.02;92393.39;1646539;85;21025;-66
2022/04/01 09:48:07;;;;;;;2.40;1.87;;;;;;;16.57;66.62;92391.17;1644286;85;21355;-65
2022/04/01 09:50:43;;;;;;;6.35;4.15;;;;;;;16.76;65.49;92390.31;1647430;84;21172;-62
2022/04/01 09:53:16;;;;;;;6.47;3.77;;;;;;;17.04;64.79;92388.30;1622027;86;21026;-67
2022/04/01 09:55:46;;;;;;;8.33;4.97;;;;;;;17.14;63.79;92385.14;1642737;84;21087;-62
2022/04/01 09:58:17;;;;;;;4.72;3.27;;;;;;;17.19;64.14;92386.27;1639850;85;21158;-61
2022/04/01 10:00:45;;;;;;;5.25;3.30;;;;;;;17.37;63.13;92382.52;1623203;86;21238;-68
2022/04/01 10:03:14;;;;;;;3.47;2.80;;;;;;;17.64;62.29;92371.27;1630752;85;22312;-63
2022/04/01 10:05:41;;;;;;;5.65;3.55;;;;;;;17.99;61.02;92369.82;1621228;85;21076;-67
2022/04/01 10:08:10;;;;;;;4.90;3.33;;;;;;;18.38;59.95;92365.97;1628659;85;21133;-62
2022/04/01 10:10:41;;;;;;;4.72;3.20;;;;;;;18.64;58.44;92370.46;1629957;85;21123;-64
2022/04/01 10:13:11;;;;;;;5.35;2.95;;;;;;;18.91;57.76;92369.54;1637889;86;21053;-60
2022/04/01 10:15:42;;;;;;;6.40;3.83;;;;;;;19.16;56.28;92364.89;1635232;84;21453;-64
2022/04/01 10:18:10;;;;;;;6.83;3.92;;;;;;;19.44;55.28;92373.68;1636465;84;21030;-69
2022/04/01 10:20:39;;;;;;;5.15;3.42;;;;;;;19.71;53.96;92388.02;1659259;84;21200;-64
2022/04/01 10:23:11;;;;;;;11.40;2.67;;;;;;;20.02;53.43;92387.29;1631169;86;21069;-63
2022/04/01 10:25:46;;;;;;;10.08;1.55;;;;;;;20.15;51.06;92383.59;1637607;86;21066;-60
2022/04/01 10:28:13;;;;;;;17.00;2.10;;;;;;;19.99;49.17;92384.96;1664232;84;21230;-61
2022/04/01 10:30:52;;;;;;;5.65;1.40;;;;;;;19.60;49.00;92395.38;1654727;84;21031;-63
2022/04/01 10:33:36;;;;;;;7.58;2.20;;;;;;;19.17;49.79;92389.34;1635189;86;21331;-64
2022/04/01 10:35:59;;;;;;;6.33;1.80;;;;;;;18.76;50.81;92385.48;1629779;86;21070;-61
2022/04/01 10:38:33;;;;;;;6.87;3.83;;;;;;;18.47;52.01;92387.69;1635416;85;21055;-61
2022/04/01 10:41:12;;;;;;;8.58;4.15;;;;;;;18.22;53.13;92389.47;1611063;86;21839;-63
2022/04/01 10:43:43;;;;;;;7.58;2.87;;;;;;;18.07;53.66;92387.30;1631630;86;21060;-62
2022/04/01 10:46:15;;;;;;;4.37;2.10;;;;;;;17.97;54.50;92388.38;1605867;87;21107;-62
2022/04/01 10:52:07;;;;;;;6.03;2.65;;;;;;;17.59;54.74;92390.22;1596283;86;21071;-64
2022/04/01 10:54:35;;;;;;;7.65;2.70;;;;;;;17.34;55.36;92389.93;1605819;88;21698;-61
2022/04/01 10:57:07;;;;;;;6.55;2.22;;;;;;;17.24;55.31;92394.45;1605633;87;21047;-59
2022/04/01 10:59:47;;;;;;;12.45;2.42;;;;;;;17.18;55.77;92386.16;1609221;87;21054;-62
2022/04/01 11:02:18;;;;;;;5.67;1.62;;;;;;;17.11;55.97;92386.87;1595341;88;21086;-63
2022/04/01 11:04:47;;;;;;;12.33;1.50;;;;;;;17.12;55.60;92382.80;1598809;87;21120;-62
2022/04/01 11:07:29;;;;;;;2.45;1.22;;;;;;;17.19;55.61;92378.69;1586445;88;21818;-62
2022/04/01 11:10:08;;;;;;;8.55;1.80;;;;;;;17.28;55.47;92381.61;1595742;88;21102;-63
2022/04/01 11:12:40;;;;;;;11.05;1.80;;;;;;;17.47;54.95;92377.95;1603888;88;21043;-63
2022/04/01 11:15:11;;;;;;;3.87;1.72;;;;;;;17.70;54.40;92374.62;1633832;85;21083;-63
2022/04/01 11:17:57;;;;;;;8.68;1.87;;;;;;;18.11;54.85;92372.37;1622739;86;21127;-63
2022/04/01 11:20:27;;;;;;;3.12;2.08;;;;;;;18.48;52.79;92375.25;1617998;86;21123;-64
2022/04/01 11:23:01;;;;;;;8.73;2.00;;;;;;;18.89;51.43;92370.75;1640724;86;21621;-63
2022/04/01 11:25:39;;;;;;;10.80;1.95;;;;;;;19.37;50.29;92366.81;1673167;84;21132;-60
2022/04/01 11:28:11;;;;;;;2.30;1.70;;;;;;;19.79;49.95;92370.63;1647275;84;21080;-63
2022/04/01 11:30:44;;;;;;;5.37;3.25;;;;;;;20.53;48.30;92356.95;1649752;85;21260;-66
2022/04/01 11:33:15;;;;;;;5.47;1.90;;;;;;;21.37;45.22;92358.56;1669675;84;21069;-67
2022/04/01 11:35:45;;;;;;;20.90;2.47;;;;;;;22.17;43.62;92349.11;1652506;84;21104;-67
2022/04/01 11:38:18;;;;;;;3.47;1.47;;;;;;;22.93;43.44;92342.53;1622229;85;21034;-60
2022/04/01 11:40:56;;;;;;;22.60;2.47;;;;;;;23.37;43.28;92335.39;1635791;84;21039;-61
2022/04/01 11:43:25;;;;;;;3.55;1.70;;;;;;;23.51;40.76;92329.41;1661488;83;21080;-64
2022/04/01 11:45:59;;;;;;;6.80;1.70;;;;;;;23.37;39.95;92330.50;1635726;84;21663;-62
2022/04/01 11:48:36;;;;;;;12.10;1.27;;;;;;;23.14;39.41;92330.16;1625904;86;21089;-60
2022/04/01 11:51:08;;;;;;;6.12;1.10;;;;;;;22.75;39.77;92329.16;1634590;85;21086;-62
2022/04/01 11:53:38;;;;;;;8.90;1.85;;;;;;;22.58;40.36;92323.63;1650743;84;21631;-60
2022/04/01 11:56:08;;;;;;;12.88;2.83;;;;;;;22.43;40.83;92325.98;1650839;83;21200;-62
2022/04/01 11:58:49;;;;;;;5.35;2.12;;;;;;;22.16;40.81;92315.42;1640562;84;21152;-61